sensor_id;sensor_type;location;lat;lon;timestamp;P1;durP1;ratioP1;P2;durP2;ratioP2
28653;SDS011;24320;56.980;24.336;2023-09-07T00:00:15;4.53;;;1.33;;
28653;SDS011;24320;56.980;24.336;2023-09-07T00:02:42;2.20;;;1.38;;
28653;SDS011;24320;56.980;24.336;2023-09-07T00:05:09;4.45;;;1.50;;
28653;SDS011;24320;56.980;24.336;2023-09-07T00:07:37;3.47;;;1.15;;
28653;SDS011;24320;56.980;24.336;2023-09-07T00:10:04;2.05;;;1.38;;
28653;SDS011;24320;56.980;24.336;2023-09-07T00:12:31;4.32;;;1.52;;
28653;SDS011;24320;56.980;24.336;2023-09-07T00:14:59;2.22;;;1.63;;
28653;SDS011;24320;56.980;24.336;2023-09-07T00:17:26;3.80;;;1.67;;
28653;SDS011;24320;56.980;24.336;2023-09-07T00:19:53;5.10;;;1.38;;
28653;SDS011;24320;56.980;24.336;2023-09-07T00:22:23;1.55;;;1.23;;
28653;SDS011;24320;56.980;24.336;2023-09-07T00:24:52;6.15;;;1.70;;
28653;SDS011;24320;56.980;24.336;2023-09-07T00:27:19;3.85;;;1.20;;
28653;SDS011;24320;56.980;24.336;2023-09-07T00:29:46;5.45;;;1.60;;
28653;SDS011;24320;56.980;24.336;2023-09-07T00:32:13;2.97;;;1.20;;
28653;SDS011;24320;56.980;24.336;2023-09-07T00:34:40;2.33;;;1.30;;
28653;SDS011;24320;56.980;24.336;2023-09-07T00:37:07;1.27;;;1.17;;
28653;SDS011;24320;56.980;24.336;2023-09-07T00:39:34;3.03;;;1.35;;
28653;SDS011;24320;56.980;24.336;2023-09-07T00:42:01;2.88;;;1.33;;
28653;SDS011;24320;56.980;24.336;2023-09-07T00:44:28;3.90;;;1.40;;
28653;SDS011;24320;56.980;24.336;2023-09-07T00:46:56;6.78;;;1.33;;
28653;SDS011;24320;56.980;24.336;2023-09-07T00:49:24;5.70;;;1.40;;
28653;SDS011;24320;56.980;24.336;2023-09-07T00:51:52;2.25;;;1.33;;
28653;SDS011;24320;56.980;24.336;2023-09-07T00:54:19;4.40;;;1.50;;
28653;SDS011;24320;56.980;24.336;2023-09-07T00:56:46;6.07;;;2.08;;
28653;SDS011;24320;56.980;24.336;2023-09-07T00:59:13;6.47;;;1.77;;
28653;SDS011;24320;56.980;24.336;2023-09-07T01:01:40;3.75;;;1.50;;
28653;SDS011;24320;56.980;24.336;2023-09-07T01:04:09;14.02;;;2.33;;
28653;SDS011;24320;56.980;24.336;2023-09-07T01:06:43;32.08;;;2.30;;
28653;SDS011;24320;56.980;24.336;2023-09-07T01:09:20;3.78;;;1.67;;
28653;SDS011;24320;56.980;24.336;2023-09-07T01:11:50;102.97;;;5.05;;
28653;SDS011;24320;56.980;24.336;2023-09-07T01:14:19;47.75;;;2.55;;
28653;SDS011;24320;56.980;24.336;2023-09-07T01:16:46;35.83;;;3.45;;
28653;SDS011;24320;56.980;24.336;2023-09-07T01:19:13;95.43;;;5.68;;
28653;SDS011;24320;56.980;24.336;2023-09-07T01:21:41;77.13;;;3.58;;
28653;SDS011;24320;56.980;24.336;2023-09-07T01:24:09;13.48;;;2.28;;
28653;SDS011;24320;56.980;24.336;2023-09-07T01:26:38;69.88;;;4.60;;
28653;SDS011;24320;56.980;24.336;2023-09-07T01:29:05;97.55;;;4.55;;
28653;SDS011;24320;56.980;24.336;2023-09-07T01:31:36;86.40;;;5.10;;
28653;SDS011;24320;56.980;24.336;2023-09-07T01:34:06;13.70;;;2.10;;
28653;SDS011;24320;56.980;24.336;2023-09-07T01:36:34;83.10;;;3.78;;
28653;SDS011;24320;56.980;24.336;2023-09-07T01:39:02;44.00;;;2.40;;
28653;SDS011;24320;56.980;24.336;2023-09-07T01:41:33;9.27;;;1.88;;
28653;SDS011;24320;56.980;24.336;2023-09-07T01:46:28;17.05;;;1.98;;
28653;SDS011;24320;56.980;24.336;2023-09-07T01:48:55;20.02;;;1.80;;
28653;SDS011;24320;56.980;24.336;2023-09-07T01:51:22;23.13;;;1.92;;
28653;SDS011;24320;56.980;24.336;2023-09-07T01:53:49;25.10;;;2.10;;
28653;SDS011;24320;56.980;24.336;2023-09-07T01:56:16;24.40;;;2.55;;
28653;SDS011;24320;56.980;24.336;2023-09-07T01:58:43;6.72;;;1.45;;
28653;SDS011;24320;56.980;24.336;2023-09-07T02:01:27;3.55;;;1.20;;
28653;SDS011;24320;56.980;24.336;2023-09-07T02:03:58;37.20;;;2.13;;
28653;SDS011;24320;56.980;24.336;2023-09-07T02:06:24;19.63;;;2.05;;
28653;SDS011;24320;56.980;24.336;2023-09-07T02:08:51;17.77;;;1.80;;
28653;SDS011;24320;56.980;24.336;2023-09-07T02:11:18;51.42;;;2.42;;
28653;SDS011;24320;56.980;24.336;2023-09-07T02:13:46;43.83;;;3.75;;
28653;SDS011;24320;56.980;24.336;2023-09-07T02:16:14;41.58;;;2.85;;
28653;SDS011;24320;56.980;24.336;2023-09-07T02:18:42;79.80;;;3.80;;
28653;SDS011;24320;56.980;24.336;2023-09-07T02:21:12;38.83;;;3.53;;
28653;SDS011;24320;56.980;24.336;2023-09-07T02:23:39;37.50;;;3.10;;
28653;SDS011;24320;56.980;24.336;2023-09-07T02:26:08;2.72;;;1.23;;
28653;SDS011;24320;56.980;24.336;2023-09-07T02:28:35;6.50;;;1.30;;
28653;SDS011;24320;56.980;24.336;2023-09-07T02:31:02;1.33;;;1.20;;
28653;SDS011;24320;56.980;24.336;2023-09-07T02:33:30;7.45;;;1.35;;
28653;SDS011;24320;56.980;24.336;2023-09-07T02:35:57;2.90;;;1.10;;
28653;SDS011;24320;56.980;24.336;2023-09-07T02:38:25;6.55;;;1.20;;
28653;SDS011;24320;56.980;24.336;2023-09-07T02:40:52;16.40;;;2.10;;
28653;SDS011;24320;56.980;24.336;2023-09-07T02:43:20;9.57;;;1.50;;
28653;SDS011;24320;56.980;24.336;2023-09-07T02:45:49;30.35;;;1.75;;
28653;SDS011;24320;56.980;24.336;2023-09-07T02:48:16;16.10;;;1.70;;
28653;SDS011;24320;56.980;24.336;2023-09-07T02:50:44;6.43;;;1.40;;
28653;SDS011;24320;56.980;24.336;2023-09-07T02:53:15;25.70;;;2.67;;
28653;SDS011;24320;56.980;24.336;2023-09-07T02:55:42;12.75;;;1.30;;
28653;SDS011;24320;56.980;24.336;2023-09-07T02:58:09;20.55;;;1.50;;
28653;SDS011;24320;56.980;24.336;2023-09-07T03:00:40;42.42;;;2.42;;
28653;SDS011;24320;56.980;24.336;2023-09-07T03:03:11;11.95;;;1.83;;
28653;SDS011;24320;56.980;24.336;2023-09-07T03:05:40;64.30;;;2.83;;
28653;SDS011;24320;56.980;24.336;2023-09-07T03:08:08;37.13;;;2.22;;
28653;SDS011;24320;56.980;24.336;2023-09-07T03:10:35;95.32;;;4.25;;
28653;SDS011;24320;56.980;24.336;2023-09-07T03:13:04;50.03;;;2.58;;
28653;SDS011;24320;56.980;24.336;2023-09-07T03:15:34;65.30;;;4.45;;
28653;SDS011;24320;56.980;24.336;2023-09-07T03:18:02;116.30;;;4.85;;
28653;SDS011;24320;56.980;24.336;2023-09-07T03:20:29;62.95;;;3.42;;
28653;SDS011;24320;56.980;24.336;2023-09-07T03:23:00;51.63;;;2.78;;
28653;SDS011;24320;56.980;24.336;2023-09-07T03:25:28;95.53;;;3.83;;
28653;SDS011;24320;56.980;24.336;2023-09-07T03:27:55;76.20;;;4.25;;
28653;SDS011;24320;56.980;24.336;2023-09-07T03:30:22;63.53;;;3.53;;
28653;SDS011;24320;56.980;24.336;2023-09-07T03:32:49;74.70;;;4.22;;
28653;SDS011;24320;56.980;24.336;2023-09-07T03:35:17;40.65;;;2.30;;
28653;SDS011;24320;56.980;24.336;2023-09-07T03:37:44;22.10;;;1.88;;
28653;SDS011;24320;56.980;24.336;2023-09-07T03:40:11;9.60;;;1.30;;
28653;SDS011;24320;56.980;24.336;2023-09-07T03:42:38;32.95;;;2.10;;
28653;SDS011;24320;56.980;24.336;2023-09-07T03:45:05;38.88;;;2.40;;
28653;SDS011;24320;56.980;24.336;2023-09-07T03:47:33;43.88;;;2.92;;
28653;SDS011;24320;56.980;24.336;2023-09-07T03:50:00;12.65;;;1.70;;
28653;SDS011;24320;56.980;24.336;2023-09-07T03:52:27;10.80;;;1.33;;
28653;SDS011;24320;56.980;24.336;2023-09-07T03:54:54;11.00;;;1.58;;
28653;SDS011;24320;56.980;24.336;2023-09-07T03:57:23;12.60;;;2.63;;
28653;SDS011;24320;56.980;24.336;2023-09-07T03:59:51;4.90;;;1.35;;
28653;SDS011;24320;56.980;24.336;2023-09-07T04:02:18;3.38;;;1.40;;
28653;SDS011;24320;56.980;24.336;2023-09-07T04:04:49;4.53;;;1.40;;
28653;SDS011;24320;56.980;24.336;2023-09-07T04:07:20;41.42;;;2.75;;
28653;SDS011;24320;56.980;24.336;2023-09-07T04:09:47;24.40;;;1.70;;
28653;SDS011;24320;56.980;24.336;2023-09-07T04:12:14;25.73;;;2.03;;
28653;SDS011;24320;56.980;24.336;2023-09-07T04:14:41;19.20;;;2.42;;
28653;SDS011;24320;56.980;24.336;2023-09-07T04:17:08;6.63;;;1.23;;
28653;SDS011;24320;56.980;24.336;2023-09-07T04:19:36;24.88;;;1.92;;
28653;SDS011;24320;56.980;24.336;2023-09-07T04:22:03;115.90;;;4.88;;
28653;SDS011;24320;56.980;24.336;2023-09-07T04:24:30;53.72;;;3.17;;
28653;SDS011;24320;56.980;24.336;2023-09-07T04:27:07;118.90;;;5.13;;
28653;SDS011;24320;56.980;24.336;2023-09-07T04:29:34;53.97;;;4.30;;
28653;SDS011;24320;56.980;24.336;2023-09-07T04:32:01;48.85;;;3.05;;
28653;SDS011;24320;56.980;24.336;2023-09-07T04:34:28;39.08;;;3.08;;
28653;SDS011;24320;56.980;24.336;2023-09-07T04:36:55;55.58;;;2.97;;
28653;SDS011;24320;56.980;24.336;2023-09-07T04:39:22;26.60;;;2.42;;
28653;SDS011;24320;56.980;24.336;2023-09-07T04:41:49;17.48;;;2.25;;
28653;SDS011;24320;56.980;24.336;2023-09-07T04:44:18;14.20;;;2.78;;
28653;SDS011;24320;56.980;24.336;2023-09-07T04:46:46;28.70;;;3.95;;
28653;SDS011;24320;56.980;24.336;2023-09-07T04:49:13;54.17;;;4.68;;
28653;SDS011;24320;56.980;24.336;2023-09-07T04:51:40;36.25;;;4.43;;
28653;SDS011;24320;56.980;24.336;2023-09-07T04:54:07;59.90;;;6.60;;
28653;SDS011;24320;56.980;24.336;2023-09-07T04:56:34;50.63;;;5.20;;
28653;SDS011;24320;56.980;24.336;2023-09-07T04:59:01;36.08;;;4.65;;
28653;SDS011;24320;56.980;24.336;2023-09-07T05:01:28;26.95;;;4.30;;
28653;SDS011;24320;56.980;24.336;2023-09-07T05:03:55;22.30;;;3.85;;
28653;SDS011;24320;56.980;24.336;2023-09-07T05:06:23;15.27;;;3.15;;
28653;SDS011;24320;56.980;24.336;2023-09-07T05:08:50;9.40;;;2.90;;
28653;SDS011;24320;56.980;24.336;2023-09-07T05:11:16;9.55;;;2.20;;
28653;SDS011;24320;56.980;24.336;2023-09-07T05:13:44;6.75;;;3.17;;
28653;SDS011;24320;56.980;24.336;2023-09-07T05:16:10;6.97;;;2.97;;
28653;SDS011;24320;56.980;24.336;2023-09-07T05:18:38;5.40;;;2.95;;
28653;SDS011;24320;56.980;24.336;2023-09-07T05:21:16;5.20;;;2.45;;
28653;SDS011;24320;56.980;24.336;2023-09-07T05:23:43;4.88;;;2.72;;
28653;SDS011;24320;56.980;24.336;2023-09-07T05:26:10;5.68;;;2.35;;
28653;SDS011;24320;56.980;24.336;2023-09-07T05:28:39;6.80;;;2.72;;
28653;SDS011;24320;56.980;24.336;2023-09-07T05:31:07;5.80;;;2.83;;
28653;SDS011;24320;56.980;24.336;2023-09-07T05:33:34;5.38;;;2.55;;
28653;SDS011;24320;56.980;24.336;2023-09-07T05:36:01;3.83;;;2.30;;
28653;SDS011;24320;56.980;24.336;2023-09-07T05:38:28;5.85;;;2.17;;
28653;SDS011;24320;56.980;24.336;2023-09-07T05:40:59;4.72;;;1.98;;
28653;SDS011;24320;56.980;24.336;2023-09-07T05:43:26;4.50;;;1.67;;
28653;SDS011;24320;56.980;24.336;2023-09-07T05:45:53;5.88;;;1.88;;
28653;SDS011;24320;56.980;24.336;2023-09-07T05:48:20;3.05;;;1.70;;
28653;SDS011;24320;56.980;24.336;2023-09-07T05:50:47;4.30;;;1.70;;
28653;SDS011;24320;56.980;24.336;2023-09-07T05:53:14;4.68;;;1.40;;
28653;SDS011;24320;56.980;24.336;2023-09-07T05:55:41;3.90;;;1.48;;
28653;SDS011;24320;56.980;24.336;2023-09-07T05:58:08;2.75;;;1.58;;
28653;SDS011;24320;56.980;24.336;2023-09-07T06:00:36;2.75;;;1.48;;
28653;SDS011;24320;56.980;24.336;2023-09-07T06:03:05;4.60;;;1.60;;
28653;SDS011;24320;56.980;24.336;2023-09-07T06:05:34;1.67;;;1.50;;
28653;SDS011;24320;56.980;24.336;2023-09-07T06:08:02;3.60;;;1.70;;
28653;SDS011;24320;56.980;24.336;2023-09-07T06:10:29;2.70;;;1.70;;
28653;SDS011;24320;56.980;24.336;2023-09-07T06:12:57;2.83;;;1.90;;
28653;SDS011;24320;56.980;24.336;2023-09-07T06:15:26;2.25;;;2.05;;
28653;SDS011;24320;56.980;24.336;2023-09-07T06:17:54;5.25;;;2.50;;
28653;SDS011;24320;56.980;24.336;2023-09-07T06:20:21;7.00;;;2.40;;
28653;SDS011;24320;56.980;24.336;2023-09-07T06:22:48;4.13;;;2.10;;
28653;SDS011;24320;56.980;24.336;2023-09-07T06:25:15;4.20;;;1.90;;
28653;SDS011;24320;56.980;24.336;2023-09-07T06:27:42;4.35;;;1.70;;
28653;SDS011;24320;56.980;24.336;2023-09-07T06:30:09;3.72;;;1.70;;
28653;SDS011;24320;56.980;24.336;2023-09-07T06:32:37;4.72;;;1.58;;
28653;SDS011;24320;56.980;24.336;2023-09-07T06:35:05;10.23;;;1.92;;
28653;SDS011;24320;56.980;24.336;2023-09-07T06:37:32;4.18;;;1.73;;
28653;SDS011;24320;56.980;24.336;2023-09-07T06:39:59;4.78;;;1.55;;
28653;SDS011;24320;56.980;24.336;2023-09-07T06:42:26;2.35;;;1.48;;
28653;SDS011;24320;56.980;24.336;2023-09-07T06:44:53;3.97;;;1.50;;
28653;SDS011;24320;56.980;24.336;2023-09-07T06:47:20;3.78;;;1.60;;
28653;SDS011;24320;56.980;24.336;2023-09-07T06:49:47;3.72;;;1.55;;
28653;SDS011;24320;56.980;24.336;2023-09-07T06:52:15;2.70;;;1.40;;
28653;SDS011;24320;56.980;24.336;2023-09-07T06:54:42;2.05;;;1.10;;
28653;SDS011;24320;56.980;24.336;2023-09-07T06:57:09;3.95;;;1.35;;
28653;SDS011;24320;56.980;24.336;2023-09-07T06:59:36;5.90;;;1.40;;
28653;SDS011;24320;56.980;24.336;2023-09-07T07:02:03;2.55;;;1.30;;
28653;SDS011;24320;56.980;24.336;2023-09-07T07:04:31;3.08;;;1.10;;
28653;SDS011;24320;56.980;24.336;2023-09-07T07:06:58;3.25;;;1.30;;
28653;SDS011;24320;56.980;24.336;2023-09-07T07:09:30;5.30;;;1.25;;
28653;SDS011;24320;56.980;24.336;2023-09-07T07:12:00;2.25;;;1.17;;
28653;SDS011;24320;56.980;24.336;2023-09-07T07:14:27;2.00;;;1.10;;
28653;SDS011;24320;56.980;24.336;2023-09-07T07:16:54;5.93;;;1.60;;
28653;SDS011;24320;56.980;24.336;2023-09-07T07:19:21;3.60;;;1.50;;
28653;SDS011;24320;56.980;24.336;2023-09-07T07:21:49;4.65;;;1.77;;
28653;SDS011;24320;56.980;24.336;2023-09-07T07:24:16;8.27;;;2.60;;
28653;SDS011;24320;56.980;24.336;2023-09-07T07:26:44;5.45;;;1.90;;
28653;SDS011;24320;56.980;24.336;2023-09-07T07:29:11;5.40;;;1.75;;
28653;SDS011;24320;56.980;24.336;2023-09-07T07:31:38;4.57;;;1.60;;
28653;SDS011;24320;56.980;24.336;2023-09-07T07:34:05;5.65;;;1.55;;
28653;SDS011;24320;56.980;24.336;2023-09-07T07:36:32;1.83;;;1.00;;
28653;SDS011;24320;56.980;24.336;2023-09-07T07:38:59;3.15;;;1.02;;
28653;SDS011;24320;56.980;24.336;2023-09-07T07:41:26;2.80;;;1.00;;
28653;SDS011;24320;56.980;24.336;2023-09-07T07:43:53;2.47;;;1.10;;
28653;SDS011;24320;56.980;24.336;2023-09-07T07:46:20;6.93;;;2.13;;
28653;SDS011;24320;56.980;24.336;2023-09-07T07:48:47;6.65;;;2.05;;
28653;SDS011;24320;56.980;24.336;2023-09-07T07:51:14;2.20;;;0.93;;
28653;SDS011;24320;56.980;24.336;2023-09-07T07:53:41;5.10;;;1.20;;
28653;SDS011;24320;56.980;24.336;2023-09-07T07:56:18;2.35;;;0.93;;
28653;SDS011;24320;56.980;24.336;2023-09-07T07:58:45;3.25;;;1.13;;
28653;SDS011;24320;56.980;24.336;2023-09-07T08:01:15;1.60;;;0.95;;
28653;SDS011;24320;56.980;24.336;2023-09-07T08:03:43;3.88;;;1.40;;
28653;SDS011;24320;56.980;24.336;2023-09-07T08:06:11;2.95;;;1.15;;
28653;SDS011;24320;56.980;24.336;2023-09-07T08:08:38;5.03;;;1.50;;
28653;SDS011;24320;56.980;24.336;2023-09-07T08:11:06;1.90;;;1.20;;
28653;SDS011;24320;56.980;24.336;2023-09-07T08:13:33;5.03;;;1.20;;
28653;SDS011;24320;56.980;24.336;2023-09-07T08:16:04;2.47;;;0.90;;
28653;SDS011;24320;56.980;24.336;2023-09-07T08:18:32;1.52;;;1.00;;
28653;SDS011;24320;56.980;24.336;2023-09-07T08:21:01;3.90;;;1.25;;
28653;SDS011;24320;56.980;24.336;2023-09-07T08:23:28;4.47;;;1.10;;
28653;SDS011;24320;56.980;24.336;2023-09-07T08:25:55;3.67;;;1.10;;
28653;SDS011;24320;56.980;24.336;2023-09-07T08:28:23;1.67;;;1.00;;
28653;SDS011;24320;56.980;24.336;2023-09-07T08:30:51;3.00;;;1.13;;
28653;SDS011;24320;56.980;24.336;2023-09-07T08:33:24;4.72;;;1.35;;
28653;SDS011;24320;56.980;24.336;2023-09-07T08:36:06;2.63;;;1.10;;
28653;SDS011;24320;56.980;24.336;2023-09-07T08:38:35;2.47;;;1.23;;
28653;SDS011;24320;56.980;24.336;2023-09-07T08:41:02;4.70;;;1.33;;
28653;SDS011;24320;56.980;24.336;2023-09-07T08:43:35;3.40;;;1.42;;
28653;SDS011;24320;56.980;24.336;2023-09-07T08:48:39;9.20;;;1.52;;
28653;SDS011;24320;56.980;24.336;2023-09-07T08:51:12;4.35;;;1.50;;
28653;SDS011;24320;56.980;24.336;2023-09-07T08:53:45;3.67;;;1.73;;
28653;SDS011;24320;56.980;24.336;2023-09-07T08:56:13;5.95;;;1.50;;
28653;SDS011;24320;56.980;24.336;2023-09-07T08:58:41;5.22;;;2.10;;
28653;SDS011;24320;56.980;24.336;2023-09-07T09:01:11;2.20;;;1.52;;
28653;SDS011;24320;56.980;24.336;2023-09-07T09:03:39;5.03;;;2.40;;
28653;SDS011;24320;56.980;24.336;2023-09-07T09:06:08;3.70;;;2.35;;
28653;SDS011;24320;56.980;24.336;2023-09-07T09:11:31;5.82;;;3.35;;
28653;SDS011;24320;56.980;24.336;2023-09-07T09:13:58;6.32;;;2.95;;
28653;SDS011;24320;56.980;24.336;2023-09-07T09:16:25;5.47;;;3.03;;
28653;SDS011;24320;56.980;24.336;2023-09-07T09:18:54;4.97;;;3.17;;
28653;SDS011;24320;56.980;24.336;2023-09-07T09:21:23;6.30;;;3.22;;
28653;SDS011;24320;56.980;24.336;2023-09-07T09:23:55;6.75;;;3.50;;
28653;SDS011;24320;56.980;24.336;2023-09-07T09:26:23;4.75;;;3.55;;
28653;SDS011;24320;56.980;24.336;2023-09-07T09:28:55;5.95;;;3.72;;
28653;SDS011;24320;56.980;24.336;2023-09-07T09:31:23;7.93;;;3.85;;
28653;SDS011;24320;56.980;24.336;2023-09-07T09:33:51;7.47;;;3.85;;
28653;SDS011;24320;56.980;24.336;2023-09-07T09:36:19;6.22;;;4.00;;
28653;SDS011;24320;56.980;24.336;2023-09-07T09:38:47;7.05;;;4.15;;
28653;SDS011;24320;56.980;24.336;2023-09-07T09:41:17;8.82;;;4.22;;
28653;SDS011;24320;56.980;24.336;2023-09-07T09:43:45;7.43;;;4.18;;
28653;SDS011;24320;56.980;24.336;2023-09-07T09:46:15;3.90;;;2.83;;
28653;SDS011;24320;56.980;24.336;2023-09-07T09:48:43;4.05;;;2.20;;
28653;SDS011;24320;56.980;24.336;2023-09-07T09:51:10;4.10;;;2.50;;
28653;SDS011;24320;56.980;24.336;2023-09-07T09:53:38;3.38;;;2.03;;
28653;SDS011;24320;56.980;24.336;2023-09-07T09:56:05;2.70;;;1.83;;
28653;SDS011;24320;56.980;24.336;2023-09-07T09:58:33;3.15;;;1.90;;
28653;SDS011;24320;56.980;24.336;2023-09-07T10:01:00;3.55;;;1.88;;
28653;SDS011;24320;56.980;24.336;2023-09-07T10:03:32;2.53;;;1.58;;
28653;SDS011;24320;56.980;24.336;2023-09-07T10:06:20;4.03;;;1.70;;
28653;SDS011;24320;56.980;24.336;2023-09-07T10:09:07;2.75;;;1.70;;
28653;SDS011;24320;56.980;24.336;2023-09-07T10:11:37;3.75;;;1.70;;
28653;SDS011;24320;56.980;24.336;2023-09-07T10:14:08;6.97;;;1.88;;
28653;SDS011;24320;56.980;24.336;2023-09-07T10:16:45;3.47;;;1.60;;
28653;SDS011;24320;56.980;24.336;2023-09-07T10:19:17;4.75;;;1.60;;
28653;SDS011;24320;56.980;24.336;2023-09-07T10:21:46;6.30;;;1.70;;
28653;SDS011;24320;56.980;24.336;2023-09-07T10:26:59;5.90;;;1.30;;
28653;SDS011;24320;56.980;24.336;2023-09-07T10:29:27;3.67;;;1.25;;
28653;SDS011;24320;56.980;24.336;2023-09-07T10:31:55;2.97;;;1.40;;
28653;SDS011;24320;56.980;24.336;2023-09-07T10:34:33;4.68;;;1.33;;
28653;SDS011;24320;56.980;24.336;2023-09-07T10:37:02;2.55;;;1.00;;
28653;SDS011;24320;56.980;24.336;2023-09-07T10:39:33;3.28;;;1.20;;
28653;SDS011;24320;56.980;24.336;2023-09-07T10:42:00;1.63;;;1.10;;
28653;SDS011;24320;56.980;24.336;2023-09-07T10:44:27;3.10;;;1.20;;
28653;SDS011;24320;56.980;24.336;2023-09-07T10:46:54;3.13;;;1.13;;
28653;SDS011;24320;56.980;24.336;2023-09-07T10:49:23;2.15;;;1.02;;
28653;SDS011;24320;56.980;24.336;2023-09-07T10:51:50;3.42;;;1.00;;
28653;SDS011;24320;56.980;24.336;2023-09-07T10:54:21;3.83;;;1.10;;
28653;SDS011;24320;56.980;24.336;2023-09-07T10:56:50;2.97;;;1.20;;
28653;SDS011;24320;56.980;24.336;2023-09-07T10:59:17;3.50;;;0.93;;
28653;SDS011;24320;56.980;24.336;2023-09-07T11:01:44;2.20;;;1.05;;
28653;SDS011;24320;56.980;24.336;2023-09-07T11:04:12;3.38;;;1.02;;
28653;SDS011;24320;56.980;24.336;2023-09-07T11:06:40;2.40;;;1.25;;
28653;SDS011;24320;56.980;24.336;2023-09-07T11:09:08;4.18;;;1.20;;
28653;SDS011;24320;56.980;24.336;2023-09-07T11:11:37;1.55;;;0.95;;
28653;SDS011;24320;56.980;24.336;2023-09-07T11:14:05;3.33;;;1.02;;
28653;SDS011;24320;56.980;24.336;2023-09-07T11:16:33;2.95;;;1.10;;
28653;SDS011;24320;56.980;24.336;2023-09-07T11:19:04;1.63;;;0.80;;
28653;SDS011;24320;56.980;24.336;2023-09-07T11:21:34;4.90;;;0.95;;
28653;SDS011;24320;56.980;24.336;2023-09-07T11:24:02;1.50;;;0.98;;
28653;SDS011;24320;56.980;24.336;2023-09-07T11:26:42;2.88;;;1.10;;
28653;SDS011;24320;56.980;24.336;2023-09-07T11:29:13;0.70;;;0.70;;
28653;SDS011;24320;56.980;24.336;2023-09-07T11:31:42;3.35;;;1.08;;
28653;SDS011;24320;56.980;24.336;2023-09-07T11:34:11;1.67;;;1.00;;
28653;SDS011;24320;56.980;24.336;2023-09-07T11:36:42;1.50;;;0.90;;
28653;SDS011;24320;56.980;24.336;2023-09-07T11:39:12;3.08;;;0.80;;
28653;SDS011;24320;56.980;24.336;2023-09-07T11:41:43;1.83;;;0.75;;
28653;SDS011;24320;56.980;24.336;2023-09-07T11:44:11;1.67;;;0.80;;
28653;SDS011;24320;56.980;24.336;2023-09-07T11:46:39;2.28;;;1.13;;
28653;SDS011;24320;56.980;24.336;2023-09-07T11:49:06;2.17;;;0.70;;
28653;SDS011;24320;56.980;24.336;2023-09-07T11:51:36;2.80;;;0.80;;
28653;SDS011;24320;56.980;24.336;2023-09-07T11:54:04;2.40;;;0.98;;
28653;SDS011;24320;56.980;24.336;2023-09-07T11:56:31;1.25;;;0.80;;
28653;SDS011;24320;56.980;24.336;2023-09-07T11:58:58;3.15;;;0.88;;
28653;SDS011;24320;56.980;24.336;2023-09-07T12:01:25;1.23;;;0.70;;
28653;SDS011;24320;56.980;24.336;2023-09-07T12:03:54;3.25;;;0.90;;
28653;SDS011;24320;56.980;24.336;2023-09-07T12:06:21;3.20;;;1.17;;
28653;SDS011;24320;56.980;24.336;2023-09-07T12:08:59;3.75;;;0.80;;
28653;SDS011;24320;56.980;24.336;2023-09-07T12:11:27;2.15;;;0.90;;
28653;SDS011;24320;56.980;24.336;2023-09-07T12:13:54;1.17;;;0.60;;
28653;SDS011;24320;56.980;24.336;2023-09-07T12:16:21;1.40;;;0.60;;
28653;SDS011;24320;56.980;24.336;2023-09-07T12:18:48;5.35;;;1.10;;
28653;SDS011;24320;56.980;24.336;2023-09-07T12:21:15;1.83;;;1.02;;
28653;SDS011;24320;56.980;24.336;2023-09-07T12:23:42;1.80;;;0.68;;
28653;SDS011;24320;56.980;24.336;2023-09-07T12:26:09;0.98;;;0.60;;
28653;SDS011;24320;56.980;24.336;2023-09-07T12:28:36;2.17;;;0.82;;
28653;SDS011;24320;56.980;24.336;2023-09-07T12:31:03;0.65;;;0.60;;
28653;SDS011;24320;56.980;24.336;2023-09-07T12:33:31;2.53;;;0.68;;
28653;SDS011;24320;56.980;24.336;2023-09-07T12:35:59;3.00;;;0.95;;
28653;SDS011;24320;56.980;24.336;2023-09-07T12:38:27;4.97;;;1.08;;
28653;SDS011;24320;56.980;24.336;2023-09-07T12:40:55;2.08;;;0.85;;
28653;SDS011;24320;56.980;24.336;2023-09-07T12:43:22;1.95;;;0.70;;
28653;SDS011;24320;56.980;24.336;2023-09-07T12:45:51;0.63;;;0.50;;
28653;SDS011;24320;56.980;24.336;2023-09-07T12:48:19;2.47;;;0.70;;
28653;SDS011;24320;56.980;24.336;2023-09-07T12:50:46;2.50;;;0.88;;
28653;SDS011;24320;56.980;24.336;2023-09-07T12:53:13;2.63;;;0.85;;
28653;SDS011;24320;56.980;24.336;2023-09-07T12:55:40;1.23;;;0.60;;
28653;SDS011;24320;56.980;24.336;2023-09-07T12:58:07;3.38;;;0.63;;
28653;SDS011;24320;56.980;24.336;2023-09-07T13:00:35;5.10;;;0.88;;
28653;SDS011;24320;56.980;24.336;2023-09-07T13:03:02;2.33;;;1.05;;
28653;SDS011;24320;56.980;24.336;2023-09-07T13:05:30;2.65;;;0.95;;
28653;SDS011;24320;56.980;24.336;2023-09-07T13:07:57;0.93;;;0.60;;
28653;SDS011;24320;56.980;24.336;2023-09-07T13:10:25;4.30;;;0.80;;
28653;SDS011;24320;56.980;24.336;2023-09-07T13:12:52;1.38;;;0.60;;
28653;SDS011;24320;56.980;24.336;2023-09-07T13:15:19;2.63;;;0.77;;
28653;SDS011;24320;56.980;24.336;2023-09-07T13:17:46;1.40;;;0.77;;
28653;SDS011;24320;56.980;24.336;2023-09-07T13:20:13;3.38;;;0.70;;
28653;SDS011;24320;56.980;24.336;2023-09-07T13:22:40;3.28;;;0.77;;
28653;SDS011;24320;56.980;24.336;2023-09-07T13:25:09;2.92;;;0.80;;
28653;SDS011;24320;56.980;24.336;2023-09-07T13:27:36;1.55;;;0.63;;
28653;SDS011;24320;56.980;24.336;2023-09-07T13:30:03;1.42;;;0.60;;
28653;SDS011;24320;56.980;24.336;2023-09-07T13:32:32;5.22;;;0.80;;
28653;SDS011;24320;56.980;24.336;2023-09-07T13:34:59;2.72;;;0.80;;
28653;SDS011;24320;56.980;24.336;2023-09-07T13:37:26;5.15;;;0.77;;
28653;SDS011;24320;56.980;24.336;2023-09-07T13:39:53;1.85;;;0.73;;
28653;SDS011;24320;56.980;24.336;2023-09-07T13:42:20;5.05;;;0.70;;
28653;SDS011;24320;56.980;24.336;2023-09-07T13:44:47;2.08;;;0.60;;
28653;SDS011;24320;56.980;24.336;2023-09-07T13:47:16;3.75;;;0.70;;
28653;SDS011;24320;56.980;24.336;2023-09-07T13:49:43;1.35;;;0.60;;
28653;SDS011;24320;56.980;24.336;2023-09-07T13:52:09;1.58;;;0.65;;
28653;SDS011;24320;56.980;24.336;2023-09-07T13:54:36;2.22;;;0.68;;
28653;SDS011;24320;56.980;24.336;2023-09-07T13:57:03;3.95;;;0.80;;
28653;SDS011;24320;56.980;24.336;2023-09-07T13:59:33;1.90;;;0.57;;
28653;SDS011;24320;56.980;24.336;2023-09-07T14:02:01;1.17;;;0.50;;
28653;SDS011;24320;56.980;24.336;2023-09-07T14:04:28;0.70;;;0.50;;
28653;SDS011;24320;56.980;24.336;2023-09-07T14:06:57;4.65;;;0.57;;
28653;SDS011;24320;56.980;24.336;2023-09-07T14:09:24;1.33;;;0.57;;
28653;SDS011;24320;56.980;24.336;2023-09-07T14:11:51;5.70;;;0.75;;
28653;SDS011;24320;56.980;24.336;2023-09-07T14:14:18;18.13;;;1.17;;
28653;SDS011;24320;56.980;24.336;2023-09-07T14:16:45;5.30;;;0.70;;
28653;SDS011;24320;56.980;24.336;2023-09-07T14:19:12;1.20;;;0.57;;
28653;SDS011;24320;56.980;24.336;2023-09-07T14:21:39;0.88;;;0.40;;
28653;SDS011;24320;56.980;24.336;2023-09-07T14:24:06;2.88;;;0.80;;
28653;SDS011;24320;56.980;24.336;2023-09-07T14:26:33;4.97;;;0.63;;
28653;SDS011;24320;56.980;24.336;2023-09-07T14:29:00;2.78;;;0.85;;
28653;SDS011;24320;56.980;24.336;2023-09-07T14:31:27;1.38;;;0.57;;
28653;SDS011;24320;56.980;24.336;2023-09-07T14:33:54;3.20;;;0.50;;
28653;SDS011;24320;56.980;24.336;2023-09-07T14:36:21;4.20;;;0.60;;
28653;SDS011;24320;56.980;24.336;2023-09-07T14:38:48;1.80;;;0.60;;
28653;SDS011;24320;56.980;24.336;2023-09-07T14:41:15;1.65;;;0.60;;
28653;SDS011;24320;56.980;24.336;2023-09-07T14:46:13;1.45;;;0.57;;
28653;SDS011;24320;56.980;24.336;2023-09-07T14:48:41;1.23;;;0.50;;